createdAt,value
2019-05-18T00:00:44.331Z,9.618835
2019-05-18T00:01:44.496Z,9.588623
2019-05-18T00:02:44.483Z,9.578552
2019-05-18T00:03:44.596Z,9.618835
2019-05-18T00:04:44.734Z,9.588623
2019-05-18T00:05:44.837Z,9.578552
2019-05-18T00:06:44.961Z,9.558411
2019-05-18T00:07:44.947Z,9.558411
2019-05-18T00:08:45.037Z,9.538269
2019-05-18T00:09:45.124Z,9.54834
2019-05-18T00:10:45.207Z,9.54834
2019-05-18T00:11:45.293Z,9.558411
2019-05-18T00:12:45.439Z,9.558411
2019-05-18T00:13:45.524Z,9.558411
2019-05-18T00:14:45.578Z,9.578552
2019-05-18T00:15:45.678Z,9.578552
2019-05-18T00:16:45.769Z,9.558411
2019-05-18T00:17:45.814Z,9.558411
2019-05-18T00:18:45.835Z,9.558411
2019-05-18T00:19:45.889Z,9.558411
2019-05-18T00:20:45.931Z,9.578552
2019-05-18T00:21:45.989Z,9.558411
2019-05-18T00:22:46.059Z,9.578552
2019-05-18T00:23:46.080Z,9.588623
2019-05-18T00:24:46.193Z,9.588623
2019-05-18T00:25:46.312Z,9.588623
2019-05-18T00:26:46.420Z,9.558411
2019-05-18T00:27:46.565Z,9.558411
2019-05-18T00:28:46.450Z,9.538269
2019-05-18T00:29:46.500Z,9.538269
2019-05-18T00:30:46.597Z,9.538269
2019-05-18T00:31:46.591Z,9.538269
2019-05-18T00:32:46.721Z,9.518127
2019-05-18T00:33:46.683Z,9.518127
2019-05-18T00:34:46.716Z,9.508057
2019-05-18T00:35:46.743Z,9.518127
2019-05-18T00:36:46.838Z,9.518127
2019-05-18T00:37:46.986Z,9.518127
2019-05-18T00:38:47.082Z,9.508057
2019-05-18T00:39:47.199Z,9.508057
2019-05-18T00:40:47.341Z,9.477844
2019-05-18T00:41:47.454Z,9.447632
2019-05-18T00:42:47.576Z,9.447632
2019-05-18T00:43:47.699Z,9.417419
2019-05-18T00:44:47.795Z,9.417419
2019-05-18T00:45:47.922Z,9.367065
2019-05-18T00:46:48.063Z,9.336853
2019-05-18T00:47:48.190Z,9.306641
2019-05-18T00:48:48.176Z,9.29657
2019-05-18T00:49:48.269Z,9.266357
2019-05-18T00:50:48.380Z,9.216003
2019-05-18T00:51:48.520Z,9.216003
2019-05-18T00:52:48.664Z,9.205933
2019-05-18T00:53:48.815Z,9.17572
2019-05-18T00:54:48.878Z,9.145508
2019-05-18T00:55:49.973Z,9.115295
2019-05-18T00:56:49.044Z,9.105225
2019-05-18T00:57:49.097Z,9.085083
2019-05-18T00:58:49.242Z,9.075012
2019-05-18T00:59:49.321Z,9.034729
2019-05-18T01:00:49.328Z,9.004517
2019-05-18T01:01:49.367Z,9.004517
2019-05-18T01:02:49.412Z,8.994446
2019-05-18T01:03:49.498Z,8.964233
2019-05-18T01:04:49.548Z,8.954163
2019-05-18T01:05:49.606Z,8.92395
2019-05-18T01:06:49.773Z,8.903809
2019-05-18T01:07:49.907Z,8.863525
2019-05-18T01:08:50.080Z,8.843384
2019-05-18T01:09:50.115Z,8.79303
2019-05-18T01:10:50.150Z,8.742676
2019-05-18T01:11:50.189Z,8.722534
2019-05-18T01:12:50.192Z,8.712463
2019-05-18T01:13:50.260Z,8.712463
2019-05-18T01:14:50.254Z,8.682251
2019-05-18T01:15:50.366Z,8.682251
2019-05-18T01:16:50.404Z,8.662109
2019-05-18T01:17:57.166Z,8.662109
2019-05-18T01:18:50.520Z,8.631897
2019-05-18T01:19:50.506Z,8.611755
2019-05-18T01:20:50.521Z,8.611755
2019-05-18T01:21:50.523Z,8.571472
2019-05-18T01:22:50.515Z,8.561401
2019-05-18T01:23:50.557Z,8.521118
2019-05-18T01:24:50.604Z,8.490906
2019-05-18T01:25:50.635Z,8.460693
2019-05-18T01:26:51.653Z,8.42041
2019-05-18T01:27:50.664Z,8.42041
2019-05-18T01:28:50.674Z,8.410339
2019-05-18T01:29:50.737Z,8.390198
2019-05-18T01:30:50.752Z,8.380127
2019-05-18T01:31:50.793Z,8.380127
2019-05-18T01:32:50.876Z,8.359985
2019-05-18T01:33:50.984Z,8.359985
2019-05-18T01:34:51.089Z,8.359985
2019-05-18T01:35:51.094Z,8.349915
2019-05-18T01:36:51.252Z,8.349915
2019-05-18T01:37:51.309Z,8.349915
2019-05-18T01:38:51.388Z,8.339844
2019-05-18T01:39:51.552Z,8.339844
2019-05-18T01:40:51.573Z,8.339844
2019-05-18T01:41:51.571Z,8.339844
2019-05-18T01:42:51.602Z,8.339844
2019-05-18T01:43:51.632Z,8.349915
2019-05-18T01:44:51.676Z,8.349915
2019-05-18T01:45:51.697Z,8.319702
2019-05-18T01:46:52.739Z,8.319702
2019-05-18T01:47:51.864Z,8.279419
2019-05-18T01:48:52.008Z,8.259277
2019-05-18T01:49:52.077Z,8.239136
2019-05-18T01:50:52.108Z,8.239136
2019-05-18T01:51:52.117Z,8.198853
2019-05-18T01:52:52.254Z,8.198853
2019-05-18T01:53:52.286Z,8.16864
2019-05-18T01:54:52.366Z,8.16864
2019-05-18T01:55:52.338Z,8.16864
2019-05-18T01:56:52.345Z,8.158569
2019-05-18T01:57:52.408Z,8.16864
2019-05-18T01:58:52.395Z,8.138428
2019-05-18T01:59:52.467Z,8.128357
2019-05-18T02:00:52.478Z,8.128357
2019-05-18T02:01:52.520Z,8.128357
2019-05-18T02:02:52.536Z,8.108215
2019-05-18T02:03:52.666Z,8.128357
2019-05-18T02:04:52.715Z,8.128357
2019-05-18T02:05:52.757Z,8.128357
2019-05-18T02:06:52.742Z,8.128357
2019-05-18T02:07:52.709Z,8.138428
2019-05-18T02:08:52.827Z,8.138428
2019-05-18T02:09:52.963Z,8.138428
2019-05-18T02:10:52.998Z,8.138428
2019-05-18T02:11:53.011Z,8.128357
2019-05-18T02:12:53.138Z,8.128357
2019-05-18T02:13:53.285Z,8.128357
2019-05-18T02:14:53.378Z,8.088074
2019-05-18T02:15:53.531Z,8.078003
2019-05-18T02:16:53.534Z,8.057861
2019-05-18T02:17:53.653Z,8.047791
2019-05-18T02:18:53.631Z,8.047791
2019-05-18T02:19:53.775Z,8.027649
2019-05-18T02:20:53.772Z,8.027649
2019-05-18T02:21:53.929Z,8.027649
2019-05-18T02:22:54.080Z,8.027649
2019-05-18T02:23:54.233Z,8.017578
2019-05-18T02:24:54.243Z,8.017578
2019-05-18T02:25:54.228Z,8.007507
2019-05-18T02:26:54.395Z,8.007507
2019-05-18T02:27:54.417Z,7.987366
2019-05-18T02:28:54.496Z,7.987366
2019-05-18T02:29:54.504Z,7.977295
2019-05-18T02:30:54.562Z,7.957153
2019-05-18T02:31:54.720Z,7.947083
2019-05-18T02:32:54.717Z,7.947083
2019-05-18T02:33:54.738Z,7.947083
2019-05-18T02:34:54.752Z,7.906799
2019-05-18T02:35:54.796Z,7.906799
2019-05-18T02:36:54.867Z,7.926941
2019-05-18T02:37:54.846Z,7.926941
2019-05-18T02:38:54.974Z,7.926941
2019-05-18T02:39:55.116Z,7.906799
2019-05-18T02:40:55.144Z,7.896729
2019-05-18T02:41:55.199Z,7.876587
2019-05-18T02:42:55.315Z,7.836304
2019-05-18T02:43:55.443Z,7.806091
2019-05-18T02:44:55.486Z,7.765808
2019-05-18T02:45:55.631Z,7.765808
2019-05-18T02:46:55.681Z,7.745667
2019-05-18T02:47:55.715Z,7.735596
2019-05-18T02:48:55.742Z,7.715454
2019-05-18T02:49:55.758Z,7.715454
2019-05-18T02:50:55.778Z,7.695312
2019-05-18T02:51:56.880Z,7.715454
2019-05-18T02:52:55.959Z,7.695312
2019-05-18T02:53:56.021Z,7.715454
2019-05-18T02:54:56.187Z,7.715454
2019-05-18T02:55:56.218Z,7.715454
2019-05-18T02:56:56.359Z,7.715454
2019-05-18T02:57:56.362Z,7.735596
2019-05-18T02:58:56.455Z,7.715454
2019-05-18T02:59:56.531Z,7.715454
2019-05-18T03:00:56.590Z,7.715454
2019-05-18T03:01:56.675Z,7.735596
2019-05-18T03:02:56.740Z,7.735596
2019-05-18T03:03:56.776Z,7.745667
2019-05-18T03:04:56.837Z,7.745667
2019-05-18T03:05:56.907Z,7.745667
2019-05-18T03:06:57.000Z,7.765808
2019-05-18T03:07:57.117Z,7.745667
2019-05-18T03:08:57.169Z,7.745667
2019-05-18T03:09:57.237Z,7.775879
2019-05-18T03:10:57.315Z,7.775879
2019-05-18T03:11:57.435Z,7.775879
2019-05-18T03:12:57.552Z,7.775879
2019-05-18T03:13:57.605Z,7.796021
2019-05-18T03:14:57.702Z,7.806091
2019-05-18T03:15:57.774Z,7.836304
2019-05-18T03:16:57.835Z,7.836304
2019-05-18T03:17:57.948Z,7.836304
2019-05-18T03:19:07.905Z,7.846375
2019-05-18T03:19:58.031Z,7.836304
2019-05-18T03:20:58.119Z,7.836304
2019-05-18T03:22:00.809Z,7.826233
2019-05-18T03:22:58.273Z,7.826233
2019-05-18T03:23:58.353Z,7.806091
2019-05-18T03:24:58.445Z,7.806091
2019-05-18T03:25:58.510Z,7.796021
2019-05-18T03:26:58.575Z,7.775879
2019-05-18T03:27:58.674Z,7.775879
2019-05-18T03:28:59.728Z,7.775879
2019-05-18T03:29:58.839Z,7.765808
2019-05-18T03:30:58.898Z,7.745667
2019-05-18T03:31:58.973Z,7.715454
2019-05-18T03:32:59.107Z,7.735596
2019-05-18T03:33:59.230Z,7.715454
2019-05-18T03:34:59.278Z,7.695312
2019-05-18T03:35:59.367Z,7.715454
2019-05-18T03:36:59.432Z,7.715454
2019-05-18T03:37:59.465Z,7.695312
2019-05-18T03:38:59.577Z,7.695312
2019-05-18T03:39:59.644Z,7.715454
2019-05-18T03:40:59.726Z,7.765808
2019-05-18T03:41:59.790Z,7.796021
2019-05-18T03:42:59.890Z,7.775879
2019-05-18T03:43:59.984Z,7.806091
2019-05-18T03:45:00.055Z,7.806091
2019-05-18T03:46:00.133Z,7.806091
2019-05-18T03:47:00.204Z,7.806091
2019-05-18T03:48:00.272Z,7.826233
2019-05-18T03:49:00.384Z,7.806091
2019-05-18T03:50:01.414Z,7.796021
2019-05-18T03:51:00.471Z,7.796021
2019-05-18T03:52:00.593Z,7.765808
2019-05-18T03:53:00.691Z,7.765808
2019-05-18T03:54:00.853Z,7.745667
2019-05-18T03:55:00.962Z,7.735596
2019-05-18T03:56:01.099Z,7.745667
2019-05-18T03:57:01.177Z,7.745667
2019-05-18T03:58:01.263Z,7.715454
2019-05-18T03:59:01.394Z,7.735596
2019-05-18T04:00:01.507Z,7.715454
2019-05-18T04:01:01.630Z,7.735596
2019-05-18T04:02:01.734Z,7.715454
2019-05-18T04:03:01.958Z,7.735596
2019-05-18T04:04:01.977Z,7.735596
2019-05-18T04:05:01.967Z,7.735596
2019-05-18T04:06:02.141Z,7.715454
2019-05-18T04:07:02.117Z,7.715454
2019-05-18T04:08:02.111Z,7.695312
2019-05-18T04:09:02.370Z,7.695312
2019-05-18T04:10:02.361Z,7.695312
2019-05-18T04:11:02.355Z,7.695312
2019-05-18T04:12:02.463Z,7.715454
2019-05-18T04:13:02.609Z,7.735596
2019-05-18T04:14:02.719Z,7.765808
2019-05-18T04:15:02.698Z,7.775879
2019-05-18T04:16:02.850Z,7.796021
2019-05-18T04:17:02.938Z,7.826233
2019-05-18T04:18:02.935Z,7.866516
2019-05-18T04:19:03.060Z,7.896729
2019-05-18T04:20:03.133Z,7.926941
2019-05-18T04:21:03.284Z,7.957153
2019-05-18T04:22:03.413Z,7.987366
2019-05-18T04:23:03.523Z,8.027649
2019-05-18T04:24:03.693Z,8.057861
2019-05-18T04:25:03.695Z,8.088074
2019-05-18T04:26:03.858Z,8.128357
2019-05-18T04:27:04.052Z,8.138428
2019-05-18T04:28:04.137Z,8.158569
2019-05-18T04:29:04.209Z,8.16864
2019-05-18T04:30:04.391Z,8.158569
2019-05-18T04:31:04.494Z,8.16864
2019-05-18T04:32:04.711Z,8.158569
2019-05-18T04:33:04.647Z,8.16864
2019-05-18T04:34:04.652Z,8.16864
2019-05-18T04:35:04.730Z,8.178711
2019-05-18T04:36:04.750Z,8.178711
2019-05-18T04:37:04.737Z,8.198853
2019-05-18T04:38:04.744Z,8.208923
2019-05-18T04:39:04.752Z,8.198853
2019-05-18T04:40:04.805Z,8.239136
2019-05-18T04:41:04.823Z,8.239136
2019-05-18T04:42:04.838Z,8.269348
2019-05-18T04:43:04.837Z,8.269348
2019-05-18T04:44:04.849Z,8.279419
2019-05-18T04:45:04.987Z,8.309631
2019-05-18T04:46:05.019Z,8.339844
2019-05-18T04:47:05.024Z,8.339844
2019-05-18T04:48:05.081Z,8.349915
2019-05-18T04:49:05.154Z,8.349915
2019-05-18T04:50:06.257Z,8.380127
2019-05-18T04:51:05.475Z,8.410339
2019-05-18T04:52:05.516Z,8.450623
2019-05-18T04:53:05.519Z,8.490906
2019-05-18T04:54:05.537Z,8.500977
2019-05-18T04:55:05.578Z,8.531189
2019-05-18T04:56:05.577Z,8.561401
2019-05-18T04:57:05.579Z,8.601685
2019-05-18T04:58:05.583Z,8.631897
2019-05-18T04:59:05.610Z,8.662109
2019-05-18T05:00:05.679Z,8.682251
2019-05-18T05:01:06.700Z,8.712463
2019-05-18T05:02:05.722Z,8.752747
2019-05-18T05:03:05.736Z,8.79303
2019-05-18T05:04:05.747Z,8.823242
2019-05-18T05:05:05.767Z,8.893738
2019-05-18T05:06:05.934Z,8.92395
2019-05-18T05:07:05.772Z,8.964233
2019-05-18T05:08:05.800Z,8.994446
2019-05-18T05:09:05.800Z,8.994446
2019-05-18T05:10:05.812Z,9.075012
2019-05-18T05:11:05.850Z,9.125366
2019-05-18T05:12:05.932Z,9.155579
2019-05-18T05:13:05.868Z,9.185791
2019-05-18T05:14:05.876Z,9.236145
2019-05-18T05:15:05.879Z,9.286499
2019-05-18T05:16:05.926Z,9.326782
2019-05-18T05:17:05.948Z,9.367065
2019-05-18T05:18:05.978Z,9.437561
2019-05-18T05:19:08.631Z,9.467773
2019-05-18T05:20:18.589Z,9.538269
2019-05-18T05:21:06.165Z,9.628906
2019-05-18T05:22:06.125Z,9.669189
2019-05-18T05:23:06.124Z,9.719543
2019-05-18T05:24:06.125Z,9.769897
2019-05-18T05:25:06.152Z,9.840393
2019-05-18T05:26:06.170Z,9.900818
2019-05-18T05:27:06.224Z,9.951172
2019-05-18T05:28:06.238Z,10.001526
2019-05-18T05:29:06.252Z,10.072021
2019-05-18T05:30:06.278Z,10.132446
2019-05-18T05:31:06.305Z,10.202942
2019-05-18T05:32:06.376Z,10.283508
2019-05-18T05:33:06.423Z,10.384216
2019-05-18T05:34:06.437Z,10.43457
2019-05-18T05:35:06.448Z,10.525208
2019-05-18T05:36:06.493Z,10.615845
2019-05-18T05:37:06.619Z,10.706482
2019-05-18T05:38:06.630Z,10.817261
2019-05-18T05:39:06.651Z,10.897827
2019-05-18T05:40:06.654Z,10.978394
2019-05-18T05:41:06.670Z,11.069031
2019-05-18T05:42:06.685Z,11.149597
2019-05-18T05:43:06.713Z,11.250305
2019-05-18T05:44:06.731Z,11.351013
2019-05-18T05:45:06.752Z,11.43158
2019-05-18T05:46:06.752Z,11.512146
2019-05-18T05:47:06.856Z,11.582642
2019-05-18T05:48:06.853Z,11.632996
2019-05-18T05:49:06.861Z,11.733704
2019-05-18T05:50:06.896Z,11.804199
2019-05-18T05:51:06.920Z,11.864624
2019-05-18T05:52:07.012Z,11.925049
2019-05-18T05:53:07.041Z,11.965332
2019-05-18T05:54:07.064Z,11.995544
2019-05-18T05:55:07.065Z,12.015686
2019-05-18T05:56:07.079Z,12.045898
2019-05-18T05:57:07.129Z,12.06604
2019-05-18T05:58:07.172Z,12.076111
2019-05-18T05:59:07.206Z,12.106323
2019-05-18T06:00:07.280Z,12.116394
2019-05-18T06:01:07.266Z,12.116394
2019-05-18T06:02:07.300Z,12.136536
2019-05-18T06:03:07.358Z,12.146606
2019-05-18T06:04:07.417Z,12.166748
2019-05-18T06:05:07.421Z,12.166748
2019-05-18T06:06:07.414Z,12.19696
2019-05-18T06:07:07.429Z,12.19696
2019-05-18T06:08:07.465Z,12.207031
2019-05-18T06:09:07.498Z,12.19696
2019-05-18T06:10:07.518Z,12.19696
2019-05-18T06:11:07.528Z,12.176819
2019-05-18T06:12:07.544Z,12.19696
2019-05-18T06:13:07.606Z,12.19696
2019-05-18T06:14:07.687Z,12.176819
2019-05-18T06:15:07.691Z,12.19696
2019-05-18T06:16:07.733Z,12.19696
2019-05-18T06:17:08.464Z,12.207031
2019-05-18T06:18:07.779Z,12.227173
2019-05-18T06:19:07.939Z,12.257385
2019-05-18T06:20:07.944Z,12.287598
2019-05-18T06:21:07.973Z,12.31781
2019-05-18T06:22:07.987Z,12.358093
2019-05-18T06:23:08.015Z,12.388306
2019-05-18T06:24:08.089Z,12.468872
2019-05-18T06:25:08.228Z,12.499084
2019-05-18T06:26:08.215Z,12.539368
2019-05-18T06:27:08.217Z,12.579651
2019-05-18T06:28:08.299Z,12.630005
2019-05-18T06:29:08.425Z,12.680359
2019-05-18T06:30:08.437Z,12.7005
2019-05-18T06:31:08.460Z,12.781067
2019-05-18T06:32:08.471Z,12.831421
2019-05-18T06:33:08.471Z,12.871704
2019-05-18T06:34:08.523Z,12.901917
2019-05-18T06:35:08.581Z,12.9422
2019-05-18T06:36:08.557Z,13.012695
2019-05-18T06:37:08.570Z,13.083191
2019-05-18T06:38:08.605Z,13.123474
2019-05-18T06:39:08.782Z,13.204041
2019-05-18T06:40:08.775Z,13.244324
2019-05-18T06:41:08.843Z,13.314819
2019-05-18T06:42:10.834Z,13.355103
2019-05-18T06:43:08.983Z,13.395386
2019-05-18T06:44:09.037Z,13.455811
2019-05-18T06:45:09.093Z,13.496094
2019-05-18T06:46:10.122Z,13.57666
2019-05-18T06:47:09.114Z,13.637085
2019-05-18T06:48:09.133Z,13.677368
2019-05-18T06:49:09.171Z,13.707581
2019-05-18T06:50:11.663Z,13.757935
2019-05-18T06:51:09.249Z,13.788147
2019-05-18T06:52:09.270Z,13.818359
2019-05-18T06:53:09.278Z,13.848572
2019-05-18T06:54:09.307Z,13.888855
2019-05-18T06:55:09.349Z,13.939209
2019-05-18T06:56:09.366Z,13.999634
2019-05-18T06:57:09.393Z,14.039917
2019-05-18T06:58:09.407Z,14.110413
2019-05-18T06:59:09.414Z,14.180908
2019-05-18T07:00:09.453Z,14.231262
2019-05-18T07:01:09.516Z,14.281616
2019-05-18T07:02:09.676Z,14.342041
2019-05-18T07:03:09.667Z,14.442749
2019-05-18T07:04:09.669Z,14.624023
2019-05-18T07:05:09.701Z,14.744873
2019-05-18T07:06:09.790Z,14.805298
2019-05-18T07:07:09.720Z,14.855652
2019-05-18T07:08:09.761Z,14.865723
2019-05-18T07:09:13.881Z,14.885864
2019-05-18T07:10:09.819Z,14.895935
2019-05-18T07:11:09.801Z,14.926147
2019-05-18T07:12:09.798Z,14.966431
2019-05-18T07:13:09.808Z,15.016785
2019-05-18T07:14:09.873Z,15.107422
2019-05-18T07:15:10.034Z,15.218201
2019-05-18T07:16:10.068Z,15.318909
2019-05-18T07:17:10.103Z,15.429688
2019-05-18T07:18:10.122Z,15.510254
2019-05-18T07:19:10.196Z,15.621033
2019-05-18T07:20:10.201Z,15.691528
2019-05-18T07:21:21.276Z,15.762024
2019-05-18T07:22:10.266Z,15.83252
2019-05-18T07:23:10.295Z,15.84259
2019-05-18T07:24:10.283Z,15.882874
2019-05-18T07:25:10.360Z,15.872803
2019-05-18T07:26:10.456Z,15.872803
2019-05-18T07:27:10.490Z,15.903015
2019-05-18T07:28:10.548Z,15.923157
2019-05-18T07:29:10.589Z,15.993652
2019-05-18T07:30:11.468Z,16.054077
2019-05-18T07:31:10.684Z,16.164856
2019-05-18T07:32:10.687Z,16.58783
2019-05-18T07:33:10.809Z,17.504272
2019-05-18T07:34:10.829Z,18.340149
2019-05-18T07:35:10.856Z,19.014893
2019-05-18T07:36:10.917Z,19.921265
2019-05-18T07:37:10.928Z,20.767212
2019-05-18T07:38:10.939Z,21.532593
2019-05-18T07:39:10.982Z,21.905212
2019-05-18T07:40:11.038Z,22.519531
2019-05-18T07:41:11.152Z,23.13385
2019-05-18T07:42:11.239Z,23.395691
2019-05-18T07:43:11.249Z,23.909302
2019-05-18T07:44:11.297Z,24.624329
2019-05-18T07:45:11.447Z,25.359497
2019-05-18T07:46:11.602Z,25.89325
2019-05-18T07:47:11.663Z,26.255798
2019-05-18T07:48:11.742Z,26.114807
2019-05-18T07:49:11.746Z,26.356506
2019-05-18T07:50:11.875Z,26.638489
2019-05-18T07:51:11.993Z,26.678772
2019-05-18T07:52:13.052Z,26.678772
2019-05-18T07:53:12.063Z,26.225586
2019-05-18T07:54:12.145Z,26.296082
2019-05-18T07:55:12.191Z,26.326294
2019-05-18T07:56:12.277Z,26.185303
2019-05-18T07:57:12.358Z,25.802612
2019-05-18T07:58:12.365Z,26.034241
2019-05-18T07:59:12.433Z,26.65863
2019-05-18T08:00:12.425Z,27.293091
2019-05-18T08:01:12.445Z,27.565002
2019-05-18T08:02:12.464Z,27.756348
2019-05-18T08:03:12.466Z,27.967834
2019-05-18T08:04:12.488Z,27.705994
2019-05-18T08:05:12.505Z,27.232666
2019-05-18T08:06:12.607Z,26.819763
2019-05-18T08:07:12.659Z,26.185303
2019-05-18T08:08:12.708Z,25.742188
2019-05-18T08:09:12.732Z,25.369568
2019-05-18T08:10:12.725Z,25.137939
2019-05-18T08:11:12.723Z,24.714966
2019-05-18T08:12:12.751Z,24.51355
2019-05-18T08:13:12.788Z,24.342346
2019-05-18T08:14:12.805Z,24.251709
2019-05-18T08:15:12.811Z,24.070435
2019-05-18T08:16:12.822Z,23.919373
2019-05-18T08:17:12.842Z,23.728027
2019-05-18T08:18:12.908Z,23.697815
2019-05-18T08:19:12.941Z,23.919373
2019-05-18T08:20:12.958Z,24.090576
2019-05-18T08:21:12.962Z,24.01001
2019-05-18T08:22:12.978Z,23.88916
2019-05-18T08:23:13.047Z,23.909302
2019-05-18T08:24:13.099Z,23.959656
2019-05-18T08:25:13.085Z,24.161072
2019-05-18T08:26:13.096Z,24.463196
2019-05-18T08:27:13.101Z,24.654541
2019-05-18T08:28:13.187Z,24.886169
2019-05-18T08:29:13.210Z,25.389709
2019-05-18T08:30:13.231Z,25.560913
2019-05-18T08:31:13.278Z,25.742188
2019-05-18T08:32:13.283Z,25.983887
2019-05-18T08:33:13.328Z,26.134949
2019-05-18T08:34:13.346Z,25.711975
2019-05-18T08:35:13.381Z,25.057373
2019-05-18T08:36:14.397Z,24.594116
2019-05-18T08:37:13.415Z,24.251709
2019-05-18T08:38:13.461Z,23.858948
2019-05-18T08:39:13.490Z,23.435974
2019-05-18T08:40:13.517Z,23.184204
2019-05-18T08:41:13.535Z,23.073425
2019-05-18T08:42:13.532Z,23.043213
2019-05-18T08:43:13.585Z,22.88208
2019-05-18T08:44:13.579Z,22.700806
2019-05-18T08:45:13.618Z,22.529602
2019-05-18T08:46:13.627Z,22.428894
2019-05-18T08:47:13.621Z,22.156982
2019-05-18T08:48:13.657Z,21.955566
2019-05-18T08:49:13.730Z,21.935425
2019-05-18T08:50:13.726Z,22.036133
2019-05-18T08:51:13.768Z,22.25769
2019-05-18T08:52:13.772Z,22.63031
2019-05-18T08:53:13.834Z,22.781372
2019-05-18T08:54:13.856Z,22.620239
2019-05-18T08:55:13.884Z,22.408752
2019-05-18T08:56:13.923Z,22.297974
2019-05-18T08:57:13.936Z,22.156982
2019-05-18T08:58:13.987Z,22.217407
2019-05-18T08:59:14.054Z,22.277832
2019-05-18T09:00:14.095Z,22.116699
2019-05-18T09:01:14.143Z,21.885071
2019-05-18T09:02:14.208Z,21.62323
2019-05-18T09:03:14.361Z,21.431885
2019-05-18T09:04:14.398Z,21.300964
2019-05-18T09:05:14.441Z,21.260681
2019-05-18T09:06:14.442Z,21.260681
2019-05-18T09:07:14.460Z,21.200256
2019-05-18T09:08:14.508Z,21.25061
2019-05-18T09:09:14.535Z,21.290894
2019-05-18T09:10:14.552Z,21.190186
2019-05-18T09:11:14.555Z,20.958557
2019-05-18T09:12:14.557Z,20.888062
2019-05-18T09:13:14.619Z,20.827637
2019-05-18T09:14:14.678Z,20.817566
2019-05-18T09:15:14.712Z,20.696716
2019-05-18T09:16:14.721Z,20.575867
2019-05-18T09:17:14.732Z,20.575867
2019-05-18T09:18:14.730Z,20.636292
2019-05-18T09:19:14.773Z,20.726929
2019-05-18T09:20:14.776Z,20.767212
2019-05-18T09:21:14.799Z,20.827637
2019-05-18T09:22:22.706Z,20.888062
2019-05-18T09:23:14.829Z,20.918274
2019-05-18T09:24:14.878Z,20.898132
2019-05-18T09:25:14.909Z,21.029053
2019-05-18T09:26:14.933Z,21.139832
2019-05-18T09:27:14.935Z,21.139832
2019-05-18T09:28:14.949Z,21.190186
2019-05-18T09:29:15.009Z,21.25061
2019-05-18T09:30:15.069Z,21.260681
2019-05-18T09:31:15.115Z,21.280823
2019-05-18T09:32:15.123Z,21.331177
2019-05-18T09:33:15.127Z,21.431885
2019-05-18T09:34:15.152Z,21.50238
2019-05-18T09:35:15.177Z,21.562805
2019-05-18T09:36:15.215Z,21.603088
2019-05-18T09:37:15.259Z,21.633301
2019-05-18T09:38:15.255Z,21.683655
2019-05-18T09:39:15.278Z,21.774292
2019-05-18T09:40:15.354Z,21.663513
2019-05-18T09:41:15.392Z,21.693726
2019-05-18T09:42:15.424Z,21.774292
2019-05-18T09:43:15.430Z,21.854858
2019-05-18T09:44:15.465Z,21.965637
2019-05-18T09:45:15.528Z,22.076416
2019-05-18T09:46:15.555Z,22.146912
2019-05-18T09:47:15.577Z,22.146912
2019-05-18T09:48:15.633Z,22.156982
2019-05-18T09:49:15.660Z,22.177124
2019-05-18T09:50:15.711Z,22.187195
2019-05-18T09:51:16.244Z,22.177124
2019-05-18T09:52:16.385Z,22.187195
2019-05-18T09:53:16.281Z,22.227478
2019-05-18T09:54:16.434Z,22.277832
2019-05-18T09:55:16.867Z,22.24762
2019-05-18T09:56:16.293Z,21.99585
2019-05-18T09:57:16.313Z,21.955566
2019-05-18T09:58:16.668Z,21.965637
2019-05-18T09:59:17.003Z,22.036133
2019-05-18T10:00:17.233Z,22.146912
2019-05-18T10:01:17.121Z,22.227478
2019-05-18T10:02:16.712Z,22.277832
2019-05-18T10:03:16.725Z,22.297974
2019-05-18T10:04:16.735Z,22.358398
2019-05-18T10:05:16.745Z,22.368469
2019-05-18T10:06:16.781Z,22.338257
2019-05-18T10:07:16.791Z,22.358398
2019-05-18T10:08:16.924Z,22.358398
2019-05-18T10:09:16.933Z,22.438965
2019-05-18T10:10:16.961Z,22.469177
2019-05-18T10:11:17.003Z,22.469177
2019-05-18T10:12:17.072Z,22.438965
2019-05-18T10:13:17.089Z,22.398682
2019-05-18T10:14:17.148Z,22.308044
2019-05-18T10:15:17.196Z,22.277832
2019-05-18T10:16:17.282Z,22.277832
2019-05-18T10:17:17.323Z,22.207336
2019-05-18T10:18:17.329Z,22.136841
2019-05-18T10:19:17.352Z,22.136841
2019-05-18T10:20:17.373Z,22.146912
2019-05-18T10:21:17.479Z,22.146912
2019-05-18T10:22:17.518Z,22.156982
2019-05-18T10:23:17.523Z,22.076416
2019-05-18T10:24:17.528Z,21.915283
2019-05-18T10:25:17.556Z,21.955566
2019-05-18T10:26:17.607Z,22.177124
2019-05-18T10:27:17.684Z,22.469177
2019-05-18T10:28:17.697Z,23.073425
2019-05-18T10:29:17.698Z,23.687744
2019-05-18T10:30:17.706Z,24.161072
2019-05-18T10:31:17.738Z,24.855957
2019-05-18T10:32:17.772Z,25.389709
2019-05-18T10:33:17.777Z,25.89325
2019-05-18T10:34:17.790Z,26.40686
2019-05-18T10:35:17.803Z,27.011108
2019-05-18T10:36:17.837Z,27.293091
2019-05-18T10:37:17.849Z,27.40387
2019-05-18T10:38:17.875Z,27.565002
2019-05-18T10:39:17.857Z,27.454224
2019-05-18T10:40:17.852Z,27.504578
2019-05-18T10:41:17.885Z,28.008118
2019-05-18T10:42:17.927Z,28.672791
2019-05-18T10:43:17.968Z,29.236755
2019-05-18T10:44:18.025Z,29.569092
2019-05-18T10:45:18.037Z,28.833923
2019-05-18T10:46:18.099Z,28.118896
2019-05-18T10:47:18.120Z,27.53479
2019-05-18T10:48:18.158Z,27.524719
2019-05-18T10:49:18.189Z,27.947693
2019-05-18T10:50:18.205Z,28.380737
2019-05-18T10:51:19.199Z,28.300171
2019-05-18T10:52:18.281Z,28.128967
2019-05-18T10:53:28.177Z,28.350525
2019-05-18T10:54:18.474Z,28.400879
2019-05-18T10:55:18.530Z,28.41095
2019-05-18T10:56:18.590Z,28.602295
2019-05-18T10:57:18.683Z,29.04541
2019-05-18T10:58:18.706Z,29.438171
2019-05-18T10:59:18.711Z,29.498596
2019-05-18T11:00:18.730Z,29.589233
2019-05-18T11:01:18.747Z,29.901428
2019-05-18T11:02:18.862Z,30.294189
2019-05-18T11:03:18.865Z,30.455322
2019-05-18T11:04:18.904Z,30.8078
2019-05-18T11:05:18.932Z,31.260986
2019-05-18T11:06:18.953Z,31.522827
2019-05-18T11:07:19.000Z,31.442261
2019-05-18T11:08:19.031Z,30.767517
2019-05-18T11:09:19.076Z,30.404968
2019-05-18T11:10:19.058Z,30.404968
2019-05-18T11:11:19.132Z,30.455322
2019-05-18T11:12:19.171Z,30.243835
2019-05-18T11:13:19.217Z,30.032349
2019-05-18T11:14:19.234Z,29.951782
2019-05-18T11:15:19.357Z,30.163269
2019-05-18T11:16:19.380Z,30.42511
2019-05-18T11:17:19.419Z,30.737305
2019-05-18T11:18:19.620Z,30.737305
2019-05-18T11:19:19.603Z,30.686951
2019-05-18T11:20:19.663Z,30.697021
2019-05-18T11:21:19.743Z,30.626526
2019-05-18T11:22:19.787Z,30.616455
2019-05-18T11:23:19.900Z,30.797729
2019-05-18T11:24:19.919Z,31.18042
2019-05-18T11:25:19.946Z,31.573181
2019-05-18T11:26:19.987Z,31.371765
2019-05-18T11:27:19.987Z,31.140137
2019-05-18T11:28:20.037Z,31.109924
2019-05-18T11:29:23.194Z,31.150208
2019-05-18T11:30:20.153Z,31.18042
2019-05-18T11:31:20.190Z,31.200562
2019-05-18T11:32:20.207Z,31.260986
2019-05-18T11:33:20.294Z,30.42511
2019-05-18T11:34:20.349Z,30.163269
2019-05-18T11:35:20.371Z,29.810791
2019-05-18T11:36:20.482Z,29.115906